Time;durP1;ratioP1;P1;durP2;ratioP2;P2;SDS_P1;SDS_P2;PMS_P1;PMS_P2;Temp;Humidity;BMP_temperature;BMP_pressure;BME280_temperature;BME280_humidity;BME280_pressure;Samples;Min_cycle;Max_cycle;Signal;HPM_P1;HPM_P2
2020/12/28 00:00:59;;;;;;;3.08;0.63;;;3.90;90.40;;;;;;4891099;29;20057;-82
2020/12/28 00:03:27;;;;;;;0.95;0.40;;;3.90;90.30;;;;;;4870888;29;20049;-82
2020/12/28 00:05:54;;;;;;;0.80;0.32;;;4.00;89.80;;;;;;4866405;29;20105;-81
2020/12/28 00:08:20;;;;;;;0.80;0.50;;;4.10;89.90;;;;;;4869182;29;20068;-83
2020/12/28 00:10:48;;;;;;;0.65;0.30;;;4.10;90.10;;;;;;4873902;29;20130;-82
2020/12/28 00:13:15;;;;;;;1.50;0.47;;;4.20;90.00;;;;;;4890219;29;20053;-82
2020/12/28 00:15:45;;;;;;;2.33;0.80;;;4.20;90.10;;;;;;4860363;29;20065;-81
2020/12/28 00:18:12;;;;;;;1.77;0.40;;;4.10;90.70;;;;;;4882083;29;20064;-80
2020/12/28 00:20:40;;;;;;;1.90;0.77;;;4.10;90.50;;;;;;4865481;29;20124;-81
2020/12/28 00:23:07;;;;;;;1.05;0.73;;;4.00;90.50;;;;;;4874024;29;20049;-80
2020/12/28 00:25:38;;;;;;;2.70;0.75;;;3.90;90.90;;;;;;4879416;29;20068;-81
2020/12/28 00:28:05;;;;;;;1.23;0.47;;;3.80;90.50;;;;;;4873693;29;20348;-79
2020/12/28 00:30:32;;;;;;;0.82;0.63;;;3.70;90.70;;;;;;4882524;29;20057;-81
2020/12/28 00:32:58;;;;;;;0.85;0.52;;;3.60;90.70;;;;;;4865554;29;20146;-80
2020/12/28 00:35:25;;;;;;;0.90;0.30;;;3.70;90.50;;;;;;4882991;29;20077;-79
2020/12/28 00:37:53;;;;;;;3.78;0.80;;;3.70;90.70;;;;;;4874599;29;20049;-82
2020/12/28 00:40:21;;;;;;;1.17;0.70;;;3.60;90.90;;;;;;4865182;29;20063;-80
2020/12/28 00:42:49;;;;;;;1.15;0.40;;;3.70;91.50;;;;;;4879401;29;20053;-80
2020/12/28 00:45:17;;;;;;;1.45;0.77;;;3.60;91.20;;;;;;4874380;29;20057;-81
2020/12/28 00:47:45;;;;;;;0.30;0.28;;;3.70;90.70;;;;;;4872216;29;20256;-83
2020/12/28 00:50:12;;;;;;;1.73;0.60;;;3.70;90.90;;;;;;4877945;29;20396;-79
2020/12/28 00:52:39;;;;;;;1.55;0.70;;;3.70;90.80;;;;;;4873268;29;20037;-79
2020/12/28 00:55:10;;;;;;;0.88;0.50;;;3.60;90.90;;;;;;4873125;29;20061;-80
2020/12/28 00:57:38;;;;;;;2.88;0.65;;;3.70;90.90;;;;;;4894346;29;20060;-82
2020/12/28 01:00:06;;;;;;;1.55;0.45;;;3.60;91.10;;;;;;4879685;29;20357;-82
2020/12/28 01:02:52;;;;;;;0.75;0.45;;;3.70;91.40;;;;;;4872434;29;20056;-81
2020/12/28 01:05:31;;;;;;;1.48;0.77;;;3.70;91.40;;;;;;4878851;29;20084;-81
2020/12/28 01:07:58;;;;;;;1.85;0.75;;;3.80;91.50;;;;;;4879301;29;20121;-81
2020/12/28 01:10:32;;;;;;;0.82;0.55;;;3.90;91.20;;;;;;4844411;29;20125;-82
2020/12/28 01:13:03;;;;;;;0.65;0.40;;;3.90;91.10;;;;;;4892886;29;20045;-81
2020/12/28 01:15:30;;;;;;;0.43;0.20;;;3.90;91.30;;;;;;4861741;29;20117;-80
2020/12/28 01:17:57;;;;;;;0.80;0.38;;;4.00;91.60;;;;;;4886718;29;20056;-79
2020/12/28 01:20:38;;;;;;;0.82;0.43;;;4.00;91.60;;;;;;4876610;29;20061;-80
2020/12/28 01:23:08;;;;;;;0.57;0.22;;;4.10;91.40;;;;;;4861321;29;20049;-80
2020/12/28 01:25:47;;;;;;;1.20;0.50;;;4.10;91.70;;;;;;4865126;29;20048;-80
2020/12/28 01:28:14;;;;;;;0.55;0.28;;;4.10;91.10;;;;;;4856994;29;20307;-81
2020/12/28 01:30:41;;;;;;;0.57;0.40;;;4.00;90.80;;;;;;4859001;29;20117;-81
2020/12/28 01:33:28;;;;;;;1.27;0.50;;;4.00;90.90;;;;;;4890205;29;20061;-81
2020/12/28 01:35:59;;;;;;;2.00;0.60;;;3.90;91.30;;;;;;4872270;29;20056;-81
2020/12/28 01:38:27;;;;;;;0.60;0.30;;;4.00;91.30;;;;;;4850621;29;20285;-81
2020/12/28 01:40:55;;;;;;;0.95;0.40;;;3.90;91.60;;;;;;4886251;29;20081;-79
2020/12/28 01:43:37;;;;;;;3.00;0.60;;;4.00;91.60;;;;;;4872767;29;20059;-81
2020/12/28 01:46:05;;;;;;;1.48;0.50;;;4.20;91.40;;;;;;4850220;29;20061;-80
2020/12/28 01:48:38;;;;;;;1.65;0.63;;;4.10;91.20;;;;;;4878929;29;20059;-80
2020/12/28 01:51:05;;;;;;;0.30;0.28;;;4.20;91.30;;;;;;4853591;29;20387;-81
2020/12/28 01:53:34;;;;;;;1.23;0.40;;;4.20;91.30;;;;;;4856850;29;20044;-82
2020/12/28 01:56:06;;;;;;;2.60;0.60;;;4.20;91.00;;;;;;4873729;29;20359;-80
2020/12/28 01:58:37;;;;;;;0.60;0.40;;;4.20;91.40;;;;;;4867792;29;20288;-80
2020/12/28 02:01:05;;;;;;;3.00;1.27;;;4.30;91.30;;;;;;4877766;29;20057;-79
2020/12/28 02:03:35;;;;;;;2.00;0.77;;;4.30;91.30;;;;;;4878317;29;20124;-81
2020/12/28 02:06:16;;;;;;;0.90;0.47;;;4.20;91.50;;;;;;4882532;29;20064;-79
2020/12/28 02:08:45;;;;;;;0.55;0.38;;;4.20;91.10;;;;;;4879809;29;20258;-80
2020/12/28 02:11:14;;;;;;;1.33;0.50;;;4.20;91.60;;;;;;4859632;29;20060;-80
2020/12/28 02:13:42;;;;;;;0.88;0.45;;;4.20;91.70;;;;;;4858170;29;20053;-82
2020/12/28 02:16:28;;;;;;;1.27;0.70;;;4.20;91.60;;;;;;4857103;29;20256;-80
2020/12/28 02:19:03;;;;;;;0.40;0.30;;;4.30;91.50;;;;;;4875789;29;20053;-79
2020/12/28 02:21:36;;;;;;;1.73;0.57;;;4.30;91.60;;;;;;4882036;29;20388;-82
2020/12/28 02:24:04;;;;;;;1.15;0.57;;;4.30;91.60;;;;;;4882534;29;20061;-81
2020/12/28 02:26:34;;;;;;;1.65;0.50;;;4.30;91.70;;;;;;4884670;29;20052;-80
2020/12/28 02:29:03;;;;;;;1.10;0.47;;;4.30;91.60;;;;;;4885529;29;20067;-82
2020/12/28 02:31:31;;;;;;;2.90;1.63;;;4.30;91.70;;;;;;4867979;29;20110;-81
2020/12/28 02:34:36;;;;;;;2.60;0.75;;;4.40;91.60;;;;;;4854158;29;20067;-79
2020/12/28 02:37:10;;;;;;;1.70;0.50;;;4.30;91.20;;;;;;4861308;29;20276;-80
2020/12/28 02:39:53;;;;;;;1.73;0.50;;;4.30;91.60;;;;;;4879501;29;20072;-80
2020/12/28 02:42:22;;;;;;;0.75;0.38;;;4.40;91.40;;;;;;4872652;29;20052;-82
2020/12/28 02:45:08;;;;;;;4.25;1.50;;;4.40;91.60;;;;;;4886486;29;20041;-79
2020/12/28 02:47:54;;;;;;;1.50;0.52;;;4.30;91.80;;;;;;4874745;29;20057;-80
2020/12/28 02:50:39;;;;;;;0.80;0.47;;;4.30;91.60;;;;;;4881738;29;20272;-80
2020/12/28 02:53:25;;;;;;;0.85;0.30;;;4.30;91.70;;;;;;4877819;29;20048;-80
2020/12/28 02:56:10;;;;;;;1.33;0.40;;;4.30;91.80;;;;;;4882275;29;20080;-80
2020/12/28 02:58:56;;;;;;;1.30;0.38;;;4.40;92.10;;;;;;4888691;29;20355;-81
2020/12/28 03:01:44;;;;;;;5.65;0.40;;;4.40;92.00;;;;;;4867519;29;20046;-79
2020/12/28 03:04:30;;;;;;;0.98;0.40;;;4.40;92.00;;;;;;4871495;29;20052;-81
2020/12/28 03:07:15;;;;;;;0.63;0.22;;;4.40;92.10;;;;;;4882439;29;20099;-80
2020/12/28 03:10:01;;;;;;;1.45;0.47;;;4.40;92.20;;;;;;4872745;29;20057;-82
2020/12/28 03:12:47;;;;;;;1.70;0.70;;;4.50;92.50;;;;;;4877613;29;20053;-79
2020/12/28 03:15:32;;;;;;;0.57;0.30;;;4.60;92.00;;;;;;4887600;29;20149;-81
2020/12/28 03:18:18;;;;;;;1.02;0.60;;;4.60;92.00;;;;;;4889131;29;20253;-82
2020/12/28 03:21:04;;;;;;;1.08;0.40;;;4.60;92.20;;;;;;4882343;29;20244;-81
2020/12/28 03:23:49;;;;;;;0.80;0.47;;;4.50;92.10;;;;;;4883017;29;20049;-81
2020/12/28 03:26:35;;;;;;;1.17;0.85;;;4.50;92.40;;;;;;4888257;29;20256;-81
2020/12/28 03:29:21;;;;;;;1.00;0.43;;;4.60;91.80;;;;;;4879160;29;20056;-80
2020/12/28 03:32:08;;;;;;;0.73;0.35;;;4.60;92.00;;;;;;4869890;29;20053;-80
2020/12/28 03:34:57;;;;;;;1.00;0.43;;;4.60;92.00;;;;;;4875557;29;20112;-82
2020/12/28 03:37:44;;;;;;;0.67;0.40;;;4.60;92.30;;;;;;4843248;29;20115;-80
2020/12/28 03:40:31;;;;;;;0.85;0.45;;;4.60;92.00;;;;;;4868408;29;20050;-81
2020/12/28 03:43:17;;;;;;;1.33;0.63;;;4.60;92.00;;;;;;4870575;29;20045;-81
2020/12/28 03:46:03;;;;;;;0.90;0.47;;;4.50;92.50;;;;;;4873895;29;20094;-81
2020/12/28 03:49:08;;;;;;;1.02;0.70;;;4.50;92.40;;;;;;4851237;29;20494;-80
2020/12/28 03:51:54;;;;;;;1.42;0.57;;;4.50;92.70;;;;;;4867243;29;20061;-84
2020/12/28 03:54:39;;;;;;;0.90;0.38;;;4.50;93.00;;;;;;4873131;29;20301;-81
2020/12/28 03:57:24;;;;;;;1.13;0.50;;;4.50;92.70;;;;;;4875850;29;20072;-81
2020/12/28 04:00:11;;;;;;;0.60;0.40;;;4.50;92.70;;;;;;4863910;29;20060;-80
2020/12/28 04:02:45;;;;;;;0.85;0.47;;;4.40;92.70;;;;;;4855553;29;20524;-81
2020/12/28 04:05:32;;;;;;;0.30;0.20;;;4.40;92.90;;;;;;4871345;29;20058;-81
2020/12/28 04:08:19;;;;;;;0.82;0.47;;;4.40;93.10;;;;;;4875240;29;20064;-80
2020/12/28 04:11:04;;;;;;;0.93;0.40;;;4.50;93.00;;;;;;4884666;29;20060;-80
2020/12/28 04:13:56;;;;;;;0.95;0.30;;;4.40;93.20;;;;;;4871036;29;20057;-81
2020/12/28 04:16:25;;;;;;;2.03;0.65;;;4.50;92.90;;;;;;4876798;29;20078;-81
2020/12/28 04:18:52;;;;;;;1.63;0.80;;;4.50;92.90;;;;;;4894052;29;20088;-79
2020/12/28 04:21:19;;;;;;;1.10;0.40;;;4.40;93.10;;;;;;4874377;29;20071;-82
2020/12/28 04:23:45;;;;;;;2.05;0.40;;;4.50;93.00;;;;;;4874599;29;20052;-82
2020/12/28 04:26:12;;;;;;;0.30;0.20;;;4.40;92.30;;;;;;4890537;29;20060;-81
2020/12/28 04:28:46;;;;;;;1.90;0.30;;;4.30;92.20;;;;;;4854920;29;20060;-80
2020/12/28 04:31:16;;;;;;;1.52;0.22;;;4.40;92.60;;;;;;4874221;29;20423;-80
2020/12/28 04:33:50;;;;;;;1.90;0.30;;;4.50;92.20;;;;;;4890519;29;20085;-81
2020/12/28 04:36:18;;;;;;;1.83;0.43;;;4.40;92.20;;;;;;4858267;29;20078;-79
2020/12/28 04:38:59;;;;;;;0.43;0.30;;;4.60;92.00;;;;;;4870820;29;20270;-81
2020/12/28 04:41:28;;;;;;;0.20;0.20;;;4.50;92.20;;;;;;4867395;29;20069;-81
2020/12/28 04:44:18;;;;;;;0.98;0.40;;;4.40;92.40;;;;;;4870014;29;20045;-79
2020/12/28 04:46:46;;;;;;;0.35;0.20;;;4.40;92.30;;;;;;4856240;29;20060;-79
2020/12/28 04:49:16;;;;;;;1.77;0.50;;;4.50;92.50;;;;;;4858190;29;20049;-81
2020/12/28 04:51:43;;;;;;;0.80;0.30;;;4.60;91.80;;;;;;4871159;29;20493;-81
2020/12/28 04:54:13;;;;;;;1.10;0.40;;;4.50;92.00;;;;;;4884845;29;20080;-79
2020/12/28 04:56:41;;;;;;;1.07;0.40;;;4.40;92.10;;;;;;4890216;29;20057;-82
2020/12/28 04:59:08;;;;;;;0.80;0.30;;;4.50;92.10;;;;;;4879282;29;20616;-81
2020/12/28 05:01:34;;;;;;;0.70;0.40;;;4.40;92.50;;;;;;4868122;29;20262;-81
2020/12/28 05:04:02;;;;;;;3.08;0.80;;;4.40;92.40;;;;;;4861907;29;20056;-81
2020/12/28 05:06:30;;;;;;;2.45;0.70;;;4.40;92.30;;;;;;4861221;29;20057;-81
2020/12/28 05:09:11;;;;;;;2.63;0.47;;;4.30;92.30;;;;;;4895167;29;20246;-81
2020/12/28 05:11:40;;;;;;;3.40;0.82;;;4.40;92.40;;;;;;4870346;29;20061;-81
2020/12/28 05:14:15;;;;;;;1.02;0.20;;;4.40;92.30;;;;;;4893932;29;20295;-81
2020/12/28 05:16:45;;;;;;;0.63;0.20;;;4.40;92.80;;;;;;4878963;29;20052;-80
2020/12/28 05:19:12;;;;;;;1.00;0.43;;;4.30;93.30;;;;;;4887409;29;20351;-81
2020/12/28 05:21:40;;;;;;;1.63;0.30;;;4.30;93.20;;;;;;4894456;29;20071;-81
2020/12/28 05:24:16;;;;;;;1.00;0.30;;;4.30;93.30;;;;;;4859042;29;20057;-79
2020/12/28 05:26:44;;;;;;;1.15;0.40;;;4.30;93.40;;;;;;4887126;29;20049;-81
2020/12/28 05:29:15;;;;;;;3.35;0.30;;;4.40;93.30;;;;;;4874683;29;20101;-81
2020/12/28 05:31:44;;;;;;;2.50;0.90;;;4.40;93.20;;;;;;4874551;29;20068;-81
2020/12/28 05:34:15;;;;;;;5.43;1.48;;;4.40;93.50;;;;;;4859201;29;20061;-81
2020/12/28 05:36:46;;;;;;;0.90;0.43;;;4.50;93.00;;;;;;4876311;29;20045;-81
2020/12/28 05:39:17;;;;;;;2.30;1.13;;;4.50;93.30;;;;;;4889371;29;20052;-81
2020/12/28 05:41:54;;;;;;;0.30;0.30;;;4.50;93.30;;;;;;4880636;29;20056;-81
2020/12/28 05:44:24;;;;;;;0.73;0.50;;;4.60;93.10;;;;;;4858800;29;20060;-81
2020/12/28 05:47:01;;;;;;;0.28;0.22;;;4.60;92.80;;;;;;4873470;29;20083;-81
2020/12/28 05:49:33;;;;;;;1.48;0.60;;;4.60;92.30;;;;;;4872950;29;20084;-81
2020/12/28 05:52:03;;;;;;;0.38;0.30;;;4.60;92.40;;;;;;4890600;29;20045;-79
2020/12/28 05:54:30;;;;;;;0.22;0.20;;;4.50;93.00;;;;;;4858110;29;20368;-81
2020/12/28 05:56:58;;;;;;;1.85;0.52;;;4.40;93.40;;;;;;4890023;29;20053;-81
2020/12/28 05:59:28;;;;;;;0.98;0.40;;;4.40;93.20;;;;;;4890692;29;20233;-79
2020/12/28 06:01:57;;;;;;;1.75;0.50;;;4.50;93.20;;;;;;4872951;29;20340;-80
2020/12/28 06:04:27;;;;;;;0.68;0.35;;;4.40;93.60;;;;;;4853608;29;20353;-80
2020/12/28 06:06:57;;;;;;;0.88;0.30;;;4.40;93.60;;;;;;4888834;29;20081;-81
2020/12/28 06:09:25;;;;;;;0.47;0.30;;;4.40;93.10;;;;;;4890558;29;20124;-80
2020/12/28 06:12:03;;;;;;;0.95;0.40;;;4.40;92.70;;;;;;4871453;29;20306;-81
2020/12/28 06:14:35;;;;;;;0.30;0.20;;;4.30;92.50;;;;;;4844526;29;20125;-81
2020/12/28 06:17:06;;;;;;;0.45;0.40;;;4.30;92.90;;;;;;4845836;29;20054;-82
2020/12/28 06:19:33;;;;;;;0.68;0.28;;;4.30;92.80;;;;;;4867429;29;20053;-79
2020/12/28 06:22:00;;;;;;;0.10;0.10;;;4.30;92.60;;;;;;4850522;29;20131;-83
2020/12/28 06:24:30;;;;;;;1.65;0.60;;;4.40;92.20;;;;;;4852057;29;20301;-81
2020/12/28 06:27:07;;;;;;;0.93;0.20;;;4.30;92.20;;;;;;4855035;29;20053;-83
2020/12/28 06:29:36;;;;;;;0.40;0.20;;;4.30;92.70;;;;;;4853913;29;20122;-81
2020/12/28 06:32:16;;;;;;;0.82;0.38;;;4.20;92.90;;;;;;4867518;29;20061;-81
2020/12/28 06:34:48;;;;;;;1.10;0.10;;;4.30;92.90;;;;;;4852066;29;20050;-81
2020/12/28 06:37:26;;;;;;;1.08;0.30;;;4.40;92.30;;;;;;4864417;29;20138;-81
2020/12/28 06:39:57;;;;;;;1.27;0.30;;;4.40;92.00;;;;;;4866829;29;20336;-79
2020/12/28 06:42:24;;;;;;;0.75;0.32;;;4.40;91.70;;;;;;4863140;29;20326;-81
2020/12/28 06:44:51;;;;;;;1.17;0.40;;;4.30;91.90;;;;;;4859280;29;20066;-81
2020/12/28 06:47:21;;;;;;;0.25;0.20;;;4.20;92.10;;;;;;4850761;29;20061;-80
2020/12/28 06:49:48;;;;;;;0.33;0.30;;;4.10;92.50;;;;;;4851113;29;20058;-80
2020/12/28 06:52:15;;;;;;;0.38;0.10;;;3.90;93.10;;;;;;4850998;29;20042;-80
2020/12/28 06:54:42;;;;;;;1.05;0.20;;;3.90;92.90;;;;;;4866254;29;20053;-79
2020/12/28 06:57:10;;;;;;;2.53;0.30;;;3.90;93.30;;;;;;4848604;29;20053;-81
2020/12/28 06:59:40;;;;;;;0.88;0.40;;;3.90;93.50;;;;;;4846696;29;20109;-80
2020/12/28 07:02:08;;;;;;;1.17;0.70;;;3.90;93.50;;;;;;4860054;29;20080;-80
2020/12/28 07:04:37;;;;;;;0.30;0.10;;;4.00;93.10;;;;;;4867519;29;20334;-81
2020/12/28 07:07:05;;;;;;;0.10;0.10;;;4.00;92.80;;;;;;4867146;29;20297;-81
2020/12/28 07:09:32;;;;;;;0.80;0.30;;;4.00;93.00;;;;;;4852154;29;20069;-80
2020/12/28 07:12:07;;;;;;;0.93;0.30;;;4.10;92.90;;;;;;4863745;29;20046;-81
2020/12/28 07:14:35;;;;;;;2.72;0.40;;;4.10;93.20;;;;;;4866424;29;20128;-81
2020/12/28 07:17:03;;;;;;;0.75;0.30;;;4.20;92.70;;;;;;4885016;29;20072;-82
2020/12/28 07:19:30;;;;;;;0.10;0.10;;;4.20;92.60;;;;;;4855133;29;20376;-80
2020/12/28 07:21:57;;;;;;;2.00;0.30;;;4.20;92.70;;;;;;4877933;29;20065;-83
2020/12/28 07:24:24;;;;;;;3.22;1.23;;;4.30;92.40;;;;;;4872239;29;20065;-83
2020/12/28 07:26:51;;;;;;;1.15;0.43;;;4.20;92.10;;;;;;4876201;29;20129;-79
2020/12/28 07:29:19;;;;;;;2.58;0.50;;;4.20;92.20;;;;;;4872061;29;20077;-80
2020/12/28 07:31:48;;;;;;;2.13;0.68;;;4.00;92.40;;;;;;4871329;29;20061;-82
2020/12/28 07:34:16;;;;;;;1.50;0.77;;;4.00;92.20;;;;;;4871656;29;20056;-81
2020/12/28 07:36:45;;;;;;;0.95;0.70;;;3.90;92.50;;;;;;4874028;29;20057;-79
2020/12/28 07:39:12;;;;;;;2.05;0.80;;;3.70;93.40;;;;;;4870358;29;20069;-80
2020/12/28 07:41:40;;;;;;;3.55;0.60;;;3.70;93.50;;;;;;4858102;29;20049;-82
2020/12/28 07:44:07;;;;;;;1.77;0.70;;;3.70;93.40;;;;;;4859871;29;20041;-80
2020/12/28 07:47:01;;;;;;;3.03;0.57;;;3.60;93.60;;;;;;4860167;29;20049;-81
2020/12/28 07:49:31;;;;;;;0.60;0.40;;;3.50;94.20;;;;;;4872313;29;20368;-81
2020/12/28 07:52:11;;;;;;;2.10;0.40;;;3.40;94.10;;;;;;4874021;29;20065;-81
2020/12/28 07:54:44;;;;;;;1.40;0.55;;;3.40;94.40;;;;;;4868056;29;20058;-81
2020/12/28 07:57:18;;;;;;;5.57;1.63;;;3.30;94.50;;;;;;4873563;29;20057;-79
2020/12/28 08:00:04;;;;;;;2.05;0.85;;;3.30;94.40;;;;;;4871222;29;20352;-80
2020/12/28 08:03:11;;;;;;;2.78;1.00;;;3.40;94.20;;;;;;4871989;29;20061;-82
2020/12/28 08:05:38;;;;;;;3.00;0.90;;;3.40;94.20;;;;;;4862899;29;20113;-80
2020/12/28 08:08:05;;;;;;;1.55;0.60;;;3.50;94.00;;;;;;4878499;29;20321;-84
2020/12/28 08:10:33;;;;;;;0.90;0.43;;;3.50;93.80;;;;;;4854063;29;20084;-80
2020/12/28 08:13:04;;;;;;;0.65;0.30;;;3.50;94.00;;;;;;4893472;29;20229;-80
2020/12/28 08:15:33;;;;;;;2.05;0.70;;;3.50;94.10;;;;;;4902268;29;20183;-80
2020/12/28 08:18:10;;;;;;;1.30;0.40;;;3.60;94.10;;;;;;4880263;29;20122;-80
2020/12/28 08:20:39;;;;;;;2.35;0.85;;;3.70;93.80;;;;;;4868378;29;20052;-81
2020/12/28 08:23:06;;;;;;;1.73;0.68;;;3.70;93.50;;;;;;4875673;29;20256;-82
2020/12/28 08:25:36;;;;;;;1.73;0.95;;;3.70;93.60;;;;;;4859975;29;20133;-81
2020/12/28 08:28:04;;;;;;;2.08;1.00;;;3.80;93.60;;;;;;4869889;29;20045;-82
2020/12/28 08:30:32;;;;;;;5.60;1.58;;;3.90;93.50;;;;;;4884497;29;20049;-80
2020/12/28 08:33:01;;;;;;;3.58;1.10;;;4.00;93.30;;;;;;4875522;29;20166;-80
2020/12/28 08:35:30;;;;;;;8.55;2.10;;;4.00;93.30;;;;;;4892560;29;20109;-81
2020/12/28 08:37:57;;;;;;;7.43;3.00;;;4.00;93.30;;;;;;4874137;29;20059;-80
2020/12/28 08:40:25;;;;;;;4.72;0.98;;;4.10;93.30;;;;;;4892283;29;20073;-80
2020/12/28 08:42:53;;;;;;;5.95;1.90;;;4.10;93.10;;;;;;4892482;29;20064;-80
2020/12/28 08:45:21;;;;;;;9.55;4.95;;;4.20;92.80;;;;;;4874594;29;20075;-79
2020/12/28 08:47:55;;;;;;;4.35;1.65;;;4.20;92.80;;;;;;4874949;29;20053;-79
2020/12/28 08:50:23;;;;;;;2.70;1.00;;;4.30;92.80;;;;;;4875204;29;20049;-81
2020/12/28 08:52:54;;;;;;;1.75;0.80;;;4.30;92.70;;;;;;4874896;29;20049;-82
2020/12/28 08:55:21;;;;;;;;;;;4.30;92.60;;;;;;4871596;29;20049;-79
2020/12/28 08:57:53;;;;;;;0.77;0.60;;;4.30;92.70;;;;;;4874571;29;19920;-82
2020/12/28 09:00:20;;;;;;;4.85;1.85;;;4.40;92.30;;;;;;4873547;29;20052;-79
2020/12/28 09:02:52;;;;;;;4.95;1.95;;;4.40;92.10;;;;;;4891697;29;20061;-80
2020/12/28 09:05:19;;;;;;;6.30;3.17;;;4.50;92.20;;;;;;4891150;29;20048;-82
2020/12/28 09:07:47;;;;;;;5.95;3.35;;;4.50;91.80;;;;;;4876046;29;20099;-80
2020/12/28 09:10:15;;;;;;;7.70;3.72;;;4.50;91.80;;;;;;4859644;29;20060;-82
2020/12/28 09:12:43;;;;;;;6.13;2.92;;;4.50;92.00;;;;;;4872020;29;20121;-79
2020/12/28 09:15:10;;;;;;;6.32;4.50;;;4.60;91.70;;;;;;4871601;29;20072;-83
2020/12/28 09:17:38;;;;;;;5.82;3.72;;;4.70;91.60;;;;;;4881295;29;20053;-81
2020/12/28 09:20:07;;;;;;;9.20;3.58;;;4.70;91.40;;;;;;4871314;29;20294;-81
2020/12/28 09:22:37;;;;;;;3.60;1.90;;;4.80;91.30;;;;;;4874563;29;20065;-81
2020/12/28 09:25:04;;;;;;;3.75;2.20;;;4.70;91.40;;;;;;4870717;29;20274;-80
2020/12/28 09:27:36;;;;;;;5.50;2.17;;;4.70;91.70;;;;;;4871108;29;20341;-80
2020/12/28 09:30:08;;;;;;;4.97;2.13;;;4.90;91.40;;;;;;4869718;29;20078;-80
2020/12/28 09:32:39;;;;;;;5.20;1.73;;;4.90;91.30;;;;;;4857422;29;20103;-79
2020/12/28 09:35:07;;;;;;;2.75;1.40;;;5.00;91.30;;;;;;4853361;29;20045;-81
2020/12/28 09:37:34;;;;;;;4.20;2.08;;;4.90;91.40;;;;;;4871173;29;20057;-80
2020/12/28 09:40:01;;;;;;;3.33;1.98;;;5.00;91.40;;;;;;4861294;29;20056;-81
2020/12/28 09:42:33;;;;;;;4.00;1.42;;;5.00;91.00;;;;;;4870644;29;20092;-78
2020/12/28 09:45:00;;;;;;;2.55;1.55;;;5.10;90.70;;;;;;4870900;29;20049;-83
2020/12/28 09:47:28;;;;;;;2.58;1.80;;;5.00;90.50;;;;;;4864384;29;20049;-79
2020/12/28 09:49:57;;;;;;;2.70;1.48;;;5.00;90.60;;;;;;4871705;29;20309;-80
2020/12/28 09:52:24;;;;;;;2.80;1.48;;;5.00;90.40;;;;;;4870368;29;20050;-80
2020/12/28 09:54:52;;;;;;;2.95;1.55;;;4.90;90.70;;;;;;4855787;29;20053;-80
2020/12/28 09:57:21;;;;;;;4.63;1.60;;;4.90;91.20;;;;;;4854710;29;20140;-81
2020/12/28 09:59:51;;;;;;;3.72;1.98;;;4.90;91.30;;;;;;4855114;29;20085;-80
2020/12/28 10:02:18;;;;;;;3.40;1.70;;;5.00;91.10;;;;;;4867374;29;20053;-80
2020/12/28 10:04:46;;;;;;;2.80;1.48;;;5.00;91.30;;;;;;4858720;29;20056;-79
2020/12/28 10:07:14;;;;;;;3.03;1.20;;;4.90;91.90;;;;;;4878144;29;20049;-82
2020/12/28 10:09:41;;;;;;;2.40;1.27;;;4.90;92.40;;;;;;4851626;29;20103;-81
2020/12/28 10:12:08;;;;;;;2.30;1.38;;;5.00;92.30;;;;;;4858290;29;20068;-80
2020/12/28 10:14:35;;;;;;;2.53;1.25;;;5.10;91.90;;;;;;4875510;29;20083;-80
2020/12/28 10:17:04;;;;;;;1.40;0.88;;;5.20;91.50;;;;;;4875790;29;20334;-81
2020/12/28 10:19:50;;;;;;;2.72;1.32;;;5.30;91.20;;;;;;1871056;29;10021763;-81
2020/12/28 10:22:21;;;;;;;4.53;1.75;;;5.40;90.90;;;;;;3864326;29;10001172;-82
2020/12/28 10:24:50;;;;;;;3.53;1.20;;;5.50;90.80;;;;;;4890066;29;20367;-80
2020/12/28 10:27:17;;;;;;;6.55;2.35;;;5.60;89.90;;;;;;4885723;29;20284;-81
2020/12/28 10:29:49;;;;;;;3.63;1.13;;;5.70;90.60;;;;;;4876167;29;20060;-79
2020/12/28 10:32:17;;;;;;;3.47;1.50;;;5.60;90.30;;;;;;4872502;29;20045;-81
2020/12/28 10:34:45;;;;;;;2.17;1.13;;;5.70;89.40;;;;;;4857743;29;20301;-79
2020/12/28 10:37:41;;;;;;;3.88;1.50;;;5.70;88.60;;;;;;4889752;29;20075;-80
2020/12/28 10:40:17;;;;;;;4.38;1.33;;;5.70;89.30;;;;;;4856697;29;20065;-81
2020/12/28 10:42:45;;;;;;;2.55;1.38;;;5.90;89.50;;;;;;4880708;29;20058;-81
2020/12/28 10:45:12;;;;;;;4.78;1.60;;;5.80;88.90;;;;;;4872737;29;20163;-81
2020/12/28 10:47:40;;;;;;;3.28;1.50;;;5.80;88.50;;;;;;4854736;29;20045;-80
2020/12/28 10:50:07;;;;;;;2.47;1.13;;;5.70;88.20;;;;;;4893512;29;20122;-80
2020/12/28 10:52:34;;;;;;;3.20;1.50;;;5.70;88.80;;;;;;4890744;29;20049;-83
2020/12/28 10:55:00;;;;;;;4.13;2.00;;;5.60;88.40;;;;;;4882750;29;20064;-81
2020/12/28 10:57:27;;;;;;;3.10;1.73;;;5.60;88.50;;;;;;4872937;29;20387;-81
2020/12/28 10:59:54;;;;;;;3.17;1.55;;;5.60;88.90;;;;;;4892767;29;20063;-81
2020/12/28 11:02:21;;;;;;;4.72;1.85;;;5.70;88.50;;;;;;4893219;29;20052;-80
2020/12/28 11:04:49;;;;;;;5.82;2.30;;;5.80;88.80;;;;;;4898637;29;20124;-81
2020/12/28 11:07:16;;;;;;;4.38;1.70;;;5.90;88.10;;;;;;4903618;29;20059;-80
2020/12/28 11:09:42;;;;;;;5.47;2.00;;;5.90;88.10;;;;;;4895241;29;20064;-79
2020/12/28 11:12:09;;;;;;;2.78;1.85;;;6.00;87.70;;;;;;4870212;29;20049;-80
2020/12/28 11:14:36;;;;;;;4.07;2.22;;;6.10;86.40;;;;;;4842236;29;20061;-79
2020/12/28 11:17:05;;;;;;;5.60;2.40;;;6.10;86.20;;;;;;4852234;29;20045;-80
2020/12/28 11:19:32;;;;;;;5.40;2.47;;;6.20;86.00;;;;;;4873263;29;20069;-82
2020/12/28 11:22:00;;;;;;;4.30;2.55;;;6.10;85.60;;;;;;4865540;29;20237;-81
2020/12/28 11:24:27;;;;;;;8.25;4.03;;;6.00;85.70;;;;;;4848309;29;20087;-80
2020/12/28 11:26:54;;;;;;;4.70;2.30;;;6.00;86.70;;;;;;4850017;29;20222;-81
2020/12/28 11:29:22;;;;;;;4.88;2.35;;;5.90;86.10;;;;;;4877362;29;20367;-80
2020/12/28 11:31:49;;;;;;;3.55;1.65;;;5.90;86.30;;;;;;4881955;29;20061;-79
2020/12/28 11:34:17;;;;;;;4.65;2.13;;;5.80;85.90;;;;;;4860098;29;20053;-81
2020/12/28 11:36:44;;;;;;;4.95;2.55;;;5.90;85.40;;;;;;4881277;29;20360;-78
2020/12/28 11:39:11;;;;;;;4.82;2.30;;;6.00;86.10;;;;;;4874568;29;20417;-84
2020/12/28 11:41:38;;;;;;;4.07;2.03;;;5.90;85.90;;;;;;4853521;29;20252;-81
2020/12/28 11:44:15;;;;;;;4.57;2.13;;;6.00;85.20;;;;;;4865269;29;20057;-80
2020/12/28 11:46:42;;;;;;;4.72;2.20;;;6.00;85.90;;;;;;4843379;29;20245;-78
2020/12/28 11:49:12;;;;;;;3.88;2.00;;;5.90;85.10;;;;;;4864049;29;20101;-80
2020/12/28 11:51:38;;;;;;;5.88;2.45;;;5.80;84.80;;;;;;4861019;29;20054;-80
2020/12/28 11:54:07;;;;;;;4.03;1.90;;;5.80;85.90;;;;;;4856297;29;20057;-80
2020/12/28 11:56:38;;;;;;;2.72;1.55;;;6.00;85.50;;;;;;4872554;29;20073;-80
2020/12/28 11:59:05;;;;;;;;;;;6.10;84.80;;;;;;4877911;29;20105;-78
2020/12/28 12:01:31;;;;;;;3.40;1.70;;;6.00;84.20;;;;;;4863633;29;20244;-82
2020/12/28 12:03:58;;;;;;;3.67;1.73;;;6.00;84.60;;;;;;4864297;29;20056;-80
2020/12/28 12:06:26;;;;;;;3.28;1.85;;;6.10;85.30;;;;;;4841300;29;20061;-81
2020/12/28 12:09:12;;;;;;;4.53;2.58;;;6.40;84.80;;;;;;4864128;29;20148;-81
2020/12/28 12:11:43;;;;;;;3.90;2.58;;;6.30;83.60;;;;;;4860059;29;20062;-80
2020/12/28 12:14:11;;;;;;;5.25;2.63;;;6.30;83.90;;;;;;4861072;29;20041;-80
2020/12/28 12:16:40;;;;;;;4.95;2.60;;;6.20;83.20;;;;;;4843428;29;20061;-81
2020/12/28 12:19:07;;;;;;;4.82;2.67;;;6.10;83.40;;;;;;4878521;29;20065;-79
2020/12/28 12:21:34;;;;;;;4.88;2.63;;;6.10;84.40;;;;;;4860675;29;20058;-79
2020/12/28 12:24:01;;;;;;;6.78;3.55;;;6.10;83.80;;;;;;4873725;29;20128;-81
2020/12/28 12:26:29;;;;;;;5.65;2.50;;;5.90;84.30;;;;;;4856084;29;20271;-81
2020/12/28 12:28:56;;;;;;;5.97;3.15;;;5.90;84.70;;;;;;4879380;29;20053;-82
2020/12/28 12:31:23;;;;;;;6.47;3.13;;;6.00;84.50;;;;;;4838550;29;20383;-79
2020/12/28 12:33:50;;;;;;;7.13;3.28;;;5.90;84.10;;;;;;4865984;29;20057;-79
2020/12/28 12:36:17;;;;;;;7.03;3.33;;;6.00;84.20;;;;;;4856093;29;20069;-81
2020/12/28 12:38:44;;;;;;;7.78;2.97;;;5.90;84.40;;;;;;4870554;29;20057;-79
2020/12/28 12:41:15;;;;;;;5.40;3.30;;;5.90;83.50;;;;;;4855347;29;20046;-80
2020/12/28 12:43:43;;;;;;;6.28;3.28;;;5.70;84.20;;;;;;4856522;29;20053;-80
2020/12/28 12:46:12;;;;;;;6.07;3.22;;;5.70;84.50;;;;;;4856466;29;20053;-80
2020/12/28 12:48:39;;;;;;;5.78;2.95;;;5.60;84.90;;;;;;4854455;29;20061;-81
2020/12/28 12:51:06;;;;;;;7.07;3.00;;;5.50;84.00;;;;;;4872723;29;20341;-80
2020/12/28 12:53:33;;;;;;;7.68;4.32;;;5.60;85.20;;;;;;4840702;29;20065;-83
2020/12/28 12:56:04;;;;;;;9.38;4.65;;;5.70;84.50;;;;;;4854729;29;20065;-79
2020/12/28 12:58:31;;;;;;;7.00;3.60;;;5.80;84.80;;;;;;4854643;29;20053;-81
2020/12/28 13:00:58;;;;;;;6.45;2.97;;;5.60;84.40;;;;;;4854701;29;20073;-79
2020/12/28 13:03:27;;;;;;;5.07;2.47;;;5.70;85.00;;;;;;4856435;29;20068;-80
2020/12/28 13:05:54;;;;;;;5.00;2.25;;;5.70;84.40;;;;;;4861915;29;20314;-79
2020/12/28 13:08:20;;;;;;;6.63;2.90;;;5.70;84.80;;;;;;4861254;29;20057;-81
2020/12/28 13:10:48;;;;;;;4.97;2.90;;;5.80;84.90;;;;;;4872298;29;20069;-80
2020/12/28 13:13:15;;;;;;;6.78;3.63;;;5.90;84.70;;;;;;4859279;29;20049;-80
2020/12/28 13:15:42;;;;;;;5.80;2.83;;;5.80;84.20;;;;;;4846665;29;20057;-79
2020/12/28 13:18:09;;;;;;;7.75;3.72;;;5.80;84.10;;;;;;4858524;29;20341;-81
2020/12/28 13:20:37;;;;;;;6.20;2.70;;;5.80;84.70;;;;;;4856644;29;20352;-79